This is the latest recevied weather packets stored in our database for station/object CE4ERM-13. If no packets are shown the sender has not sent any weather packets the latest 10 day(s).
| Time | Temp. | Humidity | Pressure | Rain* | Wind** | Luminosity | Snow |
|---|---|---|---|---|---|---|---|
| 1777250505 | 19.44° C | 34% | 1019 hPa | - | - | - | - |
| 1777250235 | 21.11° C | 36% | 1029.7 hPa | - | - | - | - |
| 1777249635 | 21.11° C | 36% | 1020.6 hPa | - | - | - | - |
| 1777249305 | 21.67° C | 31% | 1019.5 hPa | - | - | - | - |
| 1777248705 | 21.67° C | 31% | 1019.4 hPa | - | - | - | - |
| 1777247835 | 21.67° C | 36% | 1020.2 hPa | - | - | - | - |
| 1777247504 | 22.22° C | 29% | 1019 hPa | - | - | - | - |
| 1777247235 | 21.67° C | 36% | 1018.9 hPa | - | - | - | - |
| 1777246904 | 22.78° C | 28% | 1018.3 hPa | - | - | - | - |
| 1777246635 | 22.22° C | 37% | 1019.4 hPa | - | - | - | - |
| 1777246034 | 22.22° C | 37% | 1020.5 hPa | - | - | - | - |
| 1777245704 | 23.33° C | 27% | 1018.6 hPa | - | - | - | - |
| 1777245435 | 22.22° C | 36% | 1018.4 hPa | - | - | - | - |
| 1777245104 | 23.89° C | 26% | 1018.4 hPa | - | - | - | - |
| 1777244834 | 22.22° C | 35% | 1021.6 hPa | - | - | - | - |
| 1777244234 | 22.22° C | 33% | 1023.1 hPa | - | - | - | - |
| 1777243904 | 24.44° C | 26% | 1018.1 hPa | - | - | - | - |
| 1777243303 | 25° C | 24% | 1017.1 hPa | - | - | - | - |
| 1777243032 | 22.22° C | 31% | 1019.9 hPa | - | - | - | - |
| 1777242703 | 25° C | 24% | 1015.7 hPa | - | - | - | - |
| 1777242432 | 22.22° C | 31% | 1019.7 hPa | - | - | - | - |
| 1777242102 | 25° C | 23% | 1018.3 hPa | - | - | - | - |
| 1777241502 | 25.56° C | 21% | 1017.4 hPa | - | - | - | - |
| 1777240901 | 26.11° C | 21% | 1018.8 hPa | - | - | - | - |
| 1777240632 | 22.22° C | 28% | 1020.9 hPa | - | - | - | - |
* Rain since midnight (hover to see other rain measurements)
** Current wind speed in m/s (hover to see current wind gust speed)